createdAt,value
2022-08-04T00:01:07.208Z,9.73
2022-08-04T00:03:44.337Z,7.88
2022-08-04T00:06:17.689Z,6.10
2022-08-04T00:08:49.486Z,6.80
2022-08-04T00:11:25.207Z,7.05
2022-08-04T00:14:02.996Z,9.90
2022-08-04T00:16:38.687Z,7.10
2022-08-04T00:19:14.127Z,8.95
2022-08-04T00:21:49.823Z,5.78
2022-08-04T00:24:19.872Z,8.38
2022-08-04T00:26:49.695Z,9.27
2022-08-04T00:29:19.551Z,6.13
2022-08-04T00:31:56.748Z,5.80
2022-08-04T00:34:29.240Z,10.70
2022-08-04T00:36:59.879Z,10.02
2022-08-04T00:39:30.348Z,8.63
2022-08-04T00:42:24.918Z,6.18
2022-08-04T00:45:06.563Z,8.52
2022-08-04T00:47:47.817Z,5.68
2022-08-04T00:50:22.319Z,7.63
2022-08-04T00:53:03.344Z,7.85
2022-08-04T00:55:45.154Z,8.38
2022-08-04T00:58:29.324Z,10.02
2022-08-04T01:01:03.886Z,7.72
2022-08-04T01:03:53.744Z,7.45
2022-08-04T01:06:32.303Z,6.70
2022-08-04T01:09:21.727Z,6.50
2022-08-04T01:12:11.531Z,8.27
2022-08-04T01:15:03.417Z,7.72
2022-08-04T01:17:44.623Z,7.15
2022-08-04T01:20:21.269Z,12.65
2022-08-04T01:23:37.434Z,7.68
2022-08-04T01:26:44.040Z,6.00
2022-08-04T01:29:16.210Z,9.70
2022-08-04T01:32:00.923Z,6.63
2022-08-04T01:34:33.207Z,7.70
2022-08-04T01:37:07.176Z,9.32
2022-08-04T01:39:45.095Z,8.73
2022-08-04T01:42:31.758Z,9.73
2022-08-04T01:45:07.146Z,9.98
2022-08-04T01:47:38.616Z,7.45
2022-08-04T01:50:10.353Z,12.02
2022-08-04T01:52:41.970Z,8.05
2022-08-04T01:55:13.706Z,10.13
2022-08-04T01:57:46.433Z,6.93
2022-08-04T02:00:21.555Z,11.02
2022-08-04T02:02:52.544Z,10.10
2022-08-04T02:05:23.382Z,10.25
2022-08-04T02:08:14.592Z,5.55
2022-08-04T02:10:57.605Z,7.30
2022-08-04T02:13:30.976Z,8.90
2022-08-04T02:16:06.429Z,7.38
2022-08-04T02:18:42.073Z,6.33
2022-08-04T02:21:12.495Z,7.20
2022-08-04T02:23:43.642Z,8.82
2022-08-04T02:26:22.056Z,6.60
2022-08-04T02:28:56.885Z,11.88
2022-08-04T02:31:33.941Z,7.43
2022-08-04T02:34:09.876Z,9.88
2022-08-04T02:36:41.370Z,7.07
2022-08-04T02:39:13.802Z,12.40
2022-08-04T02:41:43.759Z,4.78
2022-08-04T02:44:13.836Z,9.85
2022-08-04T02:46:47.053Z,7.35
2022-08-04T02:49:17.467Z,7.25
2022-08-04T02:51:48.935Z,7.32
2022-08-04T02:54:31.869Z,8.40
2022-08-04T02:57:04.504Z,8.23
2022-08-04T02:59:48.886Z,7.60
2022-08-04T03:02:30.087Z,5.20
2022-08-04T03:05:03.795Z,10.87
2022-08-04T03:07:54.193Z,7.90
2022-08-04T03:10:37.136Z,8.77
2022-08-04T03:13:41.341Z,13.70
2022-08-04T03:16:38.917Z,8.75
2022-08-04T03:19:36.182Z,7.97
2022-08-04T03:23:11.580Z,10.43
2022-08-04T03:25:54.475Z,7.20
2022-08-04T03:29:00.728Z,10.75
2022-08-04T03:31:50.995Z,10.23
2022-08-04T03:34:44.371Z,9.38
2022-08-04T03:37:35.313Z,9.48
2022-08-04T03:40:38.984Z,10.40
2022-08-04T03:43:57.257Z,7.32
2022-08-04T03:46:54.535Z,6.43
2022-08-04T03:49:44.203Z,6.95
2022-08-04T03:52:36.532Z,8.35
2022-08-04T03:55:31.883Z,9.90
2022-08-04T03:58:30.530Z,11.48
2022-08-04T04:01:12.787Z,10.70
2022-08-04T04:04:06.751Z,11.32
2022-08-04T04:07:06.390Z,7.55
2022-08-04T04:10:19.206Z,8.17
2022-08-04T04:13:10.229Z,6.15
2022-08-04T04:15:53.563Z,7.45
2022-08-04T04:18:35.888Z,7.07
2022-08-04T04:21:23.535Z,7.85
2022-08-04T04:24:06.317Z,9.30
2022-08-04T04:26:43.487Z,6.90
2022-08-04T04:29:42.603Z,11.48
2022-08-04T04:32:24.597Z,9.43
2022-08-04T04:35:08.781Z,7.93
2022-08-04T04:37:55.093Z,8.90
2022-08-04T04:40:35.493Z,6.63
2022-08-04T04:43:16.895Z,9.80
2022-08-04T04:45:53.779Z,9.38
2022-08-04T04:48:33.770Z,10.20
2022-08-04T04:51:13.360Z,9.80
2022-08-04T04:53:50.199Z,8.20
2022-08-04T04:56:40.560Z,12.77
2022-08-04T04:59:15.641Z,9.17
2022-08-04T05:02:20.996Z,7.25
2022-08-04T05:05:18.312Z,9.43
2022-08-04T05:08:43.320Z,12.98
2022-08-04T05:11:40.171Z,10.30
2022-08-04T05:14:35.737Z,11.07
2022-08-04T05:17:09.379Z,11.27
2022-08-04T05:19:47.783Z,7.45
2022-08-04T05:22:23.987Z,12.65
2022-08-04T05:24:59.255Z,8.47
2022-08-04T05:27:35.942Z,9.30
2022-08-04T05:30:12.334Z,8.23
2022-08-04T05:32:48.509Z,9.90
2022-08-04T05:35:47.794Z,9.50
2022-08-04T05:38:15.380Z,11.00
2022-08-04T05:40:45.617Z,9.85
2022-08-04T05:43:15.936Z,8.88
2022-08-04T05:45:48.875Z,6.18
2022-08-04T05:48:20.243Z,13.07
2022-08-04T05:50:50.677Z,11.97
2022-08-04T05:53:20.881Z,9.80
2022-08-04T05:55:58.994Z,6.70
2022-08-04T05:58:31.195Z,6.78
2022-08-04T06:01:04.564Z,5.88
2022-08-04T06:03:34.955Z,12.40
2022-08-04T06:06:04.888Z,8.40
2022-08-04T06:08:34.854Z,10.23
2022-08-04T06:11:08.320Z,10.40
2022-08-04T06:13:49.120Z,11.05
2022-08-04T06:16:28.721Z,7.30
2022-08-04T06:20:01.046Z,8.25
2022-08-04T06:21:53.233Z,8.98
2022-08-04T06:24:25.115Z,8.75
2022-08-04T06:26:55.044Z,12.50
2022-08-04T06:29:32.077Z,15.63
2022-08-04T06:32:27.478Z,13.65
2022-08-04T06:35:04.342Z,9.38
2022-08-04T06:37:42.849Z,6.28
2022-08-04T06:40:31.735Z,8.82
2022-08-04T06:43:03.394Z,6.05
2022-08-04T06:45:34.710Z,8.80
2022-08-04T06:48:08.512Z,9.70
2022-08-04T06:51:27.185Z,6.90
2022-08-04T06:53:29.834Z,6.87
2022-08-04T06:56:00.422Z,8.90
2022-08-04T06:58:30.978Z,7.28
2022-08-04T07:01:02.457Z,8.93
2022-08-04T07:03:35.067Z,7.93
2022-08-04T07:06:06.183Z,7.35
2022-08-04T07:08:44.611Z,7.68
2022-08-04T07:11:14.965Z,6.50
2022-08-04T07:13:45.605Z,5.65
2022-08-04T07:16:16.981Z,5.43
2022-08-04T07:18:49.285Z,6.68
2022-08-04T07:21:27.079Z,6.22
2022-08-04T07:23:56.792Z,6.07
2022-08-04T07:26:30.475Z,7.80
2022-08-04T07:29:00.166Z,5.65
2022-08-04T07:31:33.921Z,6.13
2022-08-04T07:34:17.008Z,6.55
2022-08-04T07:36:55.224Z,8.73
2022-08-04T07:39:28.279Z,7.63
2022-08-04T07:42:02.284Z,6.60
2022-08-04T07:44:32.901Z,7.90
2022-08-04T07:47:03.220Z,12.45
2022-08-04T07:49:54.881Z,6.55
2022-08-04T07:52:25.801Z,6.50
2022-08-04T07:54:56.324Z,8.80
2022-08-04T07:57:41.499Z,7.57
2022-08-04T08:00:15.060Z,4.32
2022-08-04T08:02:45.245Z,12.00
2022-08-04T08:05:19.528Z,5.97
2022-08-04T08:07:54.562Z,5.28
2022-08-04T08:10:25.150Z,9.75
2022-08-04T08:12:55.649Z,7.68
2022-08-04T08:15:25.567Z,4.28
2022-08-04T08:17:58.779Z,5.78
2022-08-04T08:20:33.580Z,6.15
2022-08-04T08:23:04.979Z,5.50
2022-08-04T08:25:35.586Z,7.43
2022-08-04T08:28:06.447Z,11.75
2022-08-04T08:30:36.602Z,8.40
2022-08-04T08:33:08.800Z,4.70
2022-08-04T08:35:53.147Z,5.93
2022-08-04T08:38:31.928Z,4.90
2022-08-04T08:41:24.230Z,4.65
2022-08-04T08:44:30.195Z,5.20
2022-08-04T08:47:16.030Z,4.43
2022-08-04T08:50:08.640Z,6.13
2022-08-04T08:52:57.387Z,4.85
2022-08-04T08:55:40.016Z,5.38
2022-08-04T08:58:22.145Z,9.27
2022-08-04T09:00:58.143Z,3.92
2022-08-04T09:03:44.764Z,6.78
2022-08-04T09:06:41.080Z,3.95
2022-08-04T09:09:31.519Z,5.43
2022-08-04T09:12:09.093Z,3.78
2022-08-04T09:14:44.803Z,4.00
2022-08-04T09:17:23.841Z,4.65
2022-08-04T09:19:58.445Z,7.00
2022-08-04T09:22:33.172Z,3.70
2022-08-04T09:25:10.651Z,3.47
2022-08-04T09:27:49.921Z,3.87
2022-08-04T09:30:22.445Z,7.68
2022-08-04T09:33:01.200Z,3.92
2022-08-04T09:35:37.738Z,4.32
2022-08-04T09:38:14.069Z,4.43
2022-08-04T09:40:53.864Z,4.90
2022-08-04T09:43:59.380Z,7.28
2022-08-04T09:46:29.131Z,6.70
2022-08-04T09:49:02.816Z,5.82
2022-08-04T09:51:57.874Z,6.20
2022-08-04T09:54:35.039Z,4.28
2022-08-04T09:57:17.140Z,4.30
2022-08-04T09:59:56.543Z,4.90
2022-08-04T10:02:27.515Z,4.25
2022-08-04T10:04:59.856Z,6.70
2022-08-04T10:08:15.877Z,4.35
2022-08-04T10:10:55.162Z,3.30
2022-08-04T10:13:34.602Z,7.25
2022-08-04T10:16:14.493Z,4.00
2022-08-04T10:18:51.164Z,5.43
2022-08-04T10:21:31.521Z,7.85
2022-08-04T10:24:10.919Z,6.43
2022-08-04T10:26:48.859Z,6.55
2022-08-04T10:29:25.380Z,5.63
2022-08-04T10:32:00.425Z,4.35
2022-08-04T10:34:32.690Z,5.93
2022-08-04T10:37:08.523Z,7.60
2022-08-04T10:40:05.089Z,5.97
2022-08-04T10:42:39.140Z,5.90
2022-08-04T10:45:17.850Z,5.90
2022-08-04T10:47:55.193Z,7.65
2022-08-04T10:50:27.109Z,7.90
2022-08-04T10:53:01.788Z,5.10
2022-08-04T10:56:07.083Z,5.68
2022-08-04T10:58:47.621Z,6.40
2022-08-04T11:01:59.533Z,5.53
2022-08-04T11:04:26.915Z,8.75
2022-08-04T11:06:58.310Z,15.55
2022-08-04T11:09:28.010Z,9.43
2022-08-04T11:12:02.297Z,5.95
2022-08-04T11:14:36.399Z,7.57
2022-08-04T11:17:10.886Z,10.55
2022-08-04T11:19:49.975Z,6.93
2022-08-04T11:22:27.793Z,9.68
2022-08-04T11:25:09.574Z,7.93
2022-08-04T11:27:45.683Z,6.43
2022-08-04T11:30:17.710Z,7.40
2022-08-04T11:32:54.339Z,7.43
2022-08-04T11:35:35.385Z,7.60
2022-08-04T11:38:12.488Z,8.37
2022-08-04T11:41:02.068Z,7.07
2022-08-04T11:43:56.458Z,6.55
2022-08-04T11:46:36.969Z,9.10
2022-08-04T11:49:13.257Z,8.00
2022-08-04T11:51:43.508Z,8.07
2022-08-04T11:54:14.309Z,6.40
2022-08-04T11:56:44.101Z,7.38
2022-08-04T11:59:13.777Z,6.30
2022-08-04T12:01:53.853Z,8.48
2022-08-04T12:04:37.887Z,9.60
2022-08-04T12:07:30.637Z,8.13
2022-08-04T12:10:09.476Z,9.10
2022-08-04T12:12:42.264Z,6.40
2022-08-04T12:15:19.879Z,9.35
2022-08-04T12:17:53.877Z,9.38
2022-08-04T12:20:38.309Z,6.43
2022-08-04T12:23:18.053Z,7.85
2022-08-04T12:25:53.449Z,6.47
2022-08-04T12:28:41.349Z,6.60
2022-08-04T12:31:23.522Z,6.90
2022-08-04T12:34:04.403Z,6.15
2022-08-04T12:36:46.948Z,7.05
2022-08-04T12:39:19.138Z,5.82
2022-08-04T12:41:54.699Z,5.22
2022-08-04T12:44:36.851Z,9.18
2022-08-04T12:47:27.260Z,9.20
2022-08-04T12:50:02.010Z,6.35
2022-08-04T12:53:00.385Z,7.32
2022-08-04T12:55:28.945Z,7.13
2022-08-04T12:57:59.044Z,7.82
2022-08-04T13:00:35.410Z,8.35
2022-08-04T13:03:12.439Z,5.25
2022-08-04T13:05:43.461Z,10.00
2022-08-04T13:08:16.727Z,6.90
2022-08-04T13:10:51.302Z,10.70
2022-08-04T13:13:22.887Z,9.48
2022-08-04T13:16:00.246Z,9.48
2022-08-04T13:18:32.878Z,8.57
2022-08-04T13:21:21.386Z,10.18
2022-08-04T13:24:10.756Z,6.38
2022-08-04T13:26:54.730Z,5.95
2022-08-04T13:30:00.474Z,11.27
2022-08-04T13:32:22.390Z,7.80
2022-08-04T13:34:57.263Z,11.38
2022-08-04T13:37:29.642Z,14.75
2022-08-04T13:40:02.363Z,16.13
2022-08-04T13:42:32.296Z,8.02
2022-08-04T13:45:03.512Z,12.93
2022-08-04T13:47:35.246Z,8.65
2022-08-04T13:50:19.554Z,8.20
2022-08-04T13:52:50.599Z,6.85
2022-08-04T13:55:28.897Z,10.38
2022-08-04T13:58:10.619Z,9.40
2022-08-04T14:00:47.273Z,10.95
2022-08-04T14:03:24.860Z,6.78
2022-08-04T14:06:10.329Z,7.82
2022-08-04T14:08:48.887Z,11.95
2022-08-04T14:12:06.234Z,5.95
2022-08-04T14:14:19.406Z,7.80
2022-08-04T14:17:07.183Z,7.20
2022-08-04T14:19:55.964Z,9.25
2022-08-04T14:22:38.416Z,10.43
2022-08-04T14:25:16.081Z,9.77
2022-08-04T14:27:51.242Z,7.10
2022-08-04T14:30:28.044Z,9.30
2022-08-04T14:34:01.794Z,7.50
2022-08-04T14:36:01.678Z,9.93
2022-08-04T14:38:49.763Z,10.40
2022-08-04T14:41:20.773Z,8.30
2022-08-04T14:43:54.957Z,8.13
2022-08-04T14:46:30.445Z,8.75
2022-08-04T14:49:12.031Z,6.00
2022-08-04T14:51:43.360Z,6.43
2022-08-04T14:54:18.750Z,5.67
2022-08-04T14:56:55.805Z,7.88
2022-08-04T14:59:28.458Z,6.97
2022-08-04T15:02:00.651Z,9.15
2022-08-04T15:04:32.571Z,10.20
2022-08-04T15:07:04.797Z,7.45
2022-08-04T15:09:35.707Z,8.77
2022-08-04T15:12:06.834Z,9.17
2022-08-04T15:14:39.202Z,8.07
2022-08-04T15:17:28.903Z,4.95
2022-08-04T15:19:59.888Z,9.07
2022-08-04T15:22:29.655Z,8.57
2022-08-04T15:24:59.453Z,6.72
2022-08-04T15:27:31.724Z,6.90
2022-08-04T15:30:06.597Z,8.20
2022-08-04T15:32:38.708Z,8.90
2022-08-04T15:35:12.973Z,8.10
2022-08-04T15:37:51.014Z,14.45
2022-08-04T15:40:33.079Z,11.68
2022-08-04T15:43:10.649Z,30.05
2022-08-04T15:46:41.578Z,32.55
2022-08-04T15:48:44.198Z,43.40
2022-08-04T15:51:17.020Z,35.67
2022-08-04T15:54:28.062Z,30.75
2022-08-04T15:57:03.673Z,30.73
2022-08-04T16:00:01.369Z,22.90
2022-08-04T16:02:47.121Z,18.75
2022-08-04T16:05:34.464Z,17.42
2022-08-04T16:08:12.216Z,14.05
2022-08-04T16:10:43.285Z,16.80
2022-08-04T16:13:14.659Z,15.77
2022-08-04T16:15:46.907Z,13.82
2022-08-04T16:18:26.044Z,16.52
2022-08-04T16:20:59.365Z,8.33
2022-08-04T16:23:56.813Z,9.95
2022-08-04T16:26:54.958Z,9.50
2022-08-04T16:29:41.828Z,9.68
2022-08-04T16:32:26.306Z,12.20
2022-08-04T16:35:04.009Z,10.32
2022-08-04T16:37:36.093Z,10.13
2022-08-04T16:40:37.792Z,13.50
2022-08-04T16:43:11.440Z,11.07
2022-08-04T16:45:48.525Z,9.68
2022-08-04T16:48:19.469Z,15.13
2022-08-04T16:50:54.391Z,8.23
2022-08-04T16:54:02.962Z,9.38
2022-08-04T16:56:18.860Z,8.35
2022-08-04T16:58:54.557Z,9.20
2022-08-04T17:01:33.064Z,5.97
2022-08-04T17:04:07.769Z,10.50
2022-08-04T17:06:42.977Z,10.73
2022-08-04T17:09:14.680Z,9.65
2022-08-04T17:11:45.748Z,7.30
2022-08-04T17:14:15.846Z,9.07
2022-08-04T17:16:46.107Z,6.97
2022-08-04T17:19:24.392Z,6.40
2022-08-04T17:22:06.121Z,13.02
2022-08-04T17:24:38.208Z,7.60
2022-08-04T17:28:19.189Z,10.30
2022-08-04T17:29:58.144Z,8.70
2022-08-04T17:32:28.022Z,8.73
2022-08-04T17:37:55.566Z,8.38
2022-08-04T17:40:26.761Z,6.13
2022-08-04T17:44:05.193Z,6.63
2022-08-04T17:46:29.394Z,12.37
2022-08-04T17:49:05.962Z,6.68
2022-08-04T17:52:04.895Z,7.77
2022-08-04T17:54:39.076Z,9.65
2022-08-04T17:57:21.424Z,9.27
2022-08-04T17:59:58.353Z,8.82
2022-08-04T18:05:50.185Z,11.00
2022-08-04T18:08:37.599Z,7.45
2022-08-04T18:11:22.246Z,10.90
2022-08-04T18:13:58.482Z,6.43
2022-08-04T18:16:28.139Z,6.93
2022-08-04T18:19:14.717Z,9.47
2022-08-04T18:21:59.491Z,7.25
2022-08-04T18:24:35.170Z,11.02
2022-08-04T18:27:26.283Z,9.77
2022-08-04T18:30:34.632Z,8.40
2022-08-04T18:33:24.661Z,9.37
2022-08-04T18:36:33.133Z,8.43
2022-08-04T18:38:31.951Z,6.72
2022-08-04T18:41:02.257Z,10.15
2022-08-04T18:43:41.439Z,5.85
2022-08-04T18:46:14.591Z,11.50
2022-08-04T18:48:45.236Z,16.05
2022-08-04T18:51:23.558Z,8.88
2022-08-04T18:53:59.020Z,8.70
2022-08-04T18:56:32.846Z,6.68
2022-08-04T18:59:10.235Z,8.37
2022-08-04T19:02:13.480Z,7.10
2022-08-04T19:04:33.293Z,7.00
2022-08-04T19:08:01.396Z,10.00
2022-08-04T19:09:58.506Z,5.95
2022-08-04T19:12:29.749Z,7.47
2022-08-04T19:15:10.322Z,9.90
2022-08-04T19:20:31.585Z,9.03
2022-08-04T19:24:10.638Z,7.80
2022-08-04T19:25:58.686Z,6.80
2022-08-04T19:28:34.817Z,7.10
2022-08-04T19:31:08.635Z,9.55
2022-08-04T19:33:58.616Z,7.50
2022-08-04T19:36:31.138Z,10.00
2022-08-04T19:39:02.335Z,8.98
2022-08-04T19:42:04.474Z,6.78
2022-08-04T19:44:30.136Z,9.45
2022-08-04T19:48:12.122Z,12.93
2022-08-04T19:50:05.198Z,8.45
2022-08-04T19:52:40.328Z,8.18
2022-08-04T19:58:11.652Z,8.13
2022-08-04T20:00:44.837Z,14.45
2022-08-04T20:04:10.357Z,12.75
2022-08-04T20:06:13.539Z,10.55
2022-08-04T20:08:48.682Z,7.53
2022-08-04T20:11:20.636Z,8.35
2022-08-04T20:13:54.865Z,9.25
2022-08-04T20:16:30.434Z,18.00
2022-08-04T20:21:55.389Z,8.77
2022-08-04T20:24:39.067Z,8.70
2022-08-04T20:27:15.096Z,12.23
2022-08-04T20:29:49.073Z,9.00
2022-08-04T20:32:22.213Z,7.95
2022-08-04T20:34:56.119Z,6.82
2022-08-04T20:37:55.153Z,8.68
2022-08-04T20:40:16.812Z,10.03
2022-08-04T20:42:46.571Z,9.52
2022-08-04T20:45:18.068Z,15.05
2022-08-04T20:47:54.299Z,6.72
2022-08-04T20:50:29.848Z,8.32
2022-08-04T20:53:00.466Z,11.40
2022-08-04T20:55:30.464Z,11.27
2022-08-04T20:58:03.174Z,12.40
2022-08-04T21:00:33.770Z,8.50
2022-08-04T21:03:04.016Z,8.23
2022-08-04T21:05:36.239Z,6.68
2022-08-04T21:08:06.192Z,7.27
2022-08-04T21:10:37.248Z,10.75
2022-08-04T21:13:07.032Z,8.80
2022-08-04T21:15:58.737Z,11.85
2022-08-04T21:18:29.450Z,11.48
2022-08-04T21:21:02.649Z,9.15
2022-08-04T21:23:34.056Z,12.40
2022-08-04T21:26:04.484Z,10.15
2022-08-04T21:28:34.538Z,12.52
2022-08-04T21:31:11.333Z,13.20
2022-08-04T21:33:52.378Z,9.00
2022-08-04T21:36:27.500Z,16.75
2022-08-04T21:38:57.536Z,9.00
2022-08-04T21:41:27.581Z,9.10
2022-08-04T21:43:58.934Z,9.15
2022-08-04T21:46:30.108Z,11.52
2022-08-04T21:49:01.379Z,8.88
2022-08-04T21:51:58.410Z,5.18
2022-08-04T21:54:26.055Z,6.88
2022-08-04T21:56:55.748Z,7.00
2022-08-04T21:59:30.541Z,4.43
2022-08-04T22:02:02.311Z,6.00
2022-08-04T22:04:32.488Z,9.03
2022-08-04T22:07:04.723Z,7.15
2022-08-04T22:12:26.001Z,7.18
2022-08-04T22:14:59.931Z,5.57
2022-08-04T22:17:35.688Z,4.85
2022-08-04T22:20:06.451Z,6.72
2022-08-04T22:23:06.109Z,7.03
2022-08-04T22:25:55.591Z,4.55
2022-08-04T22:28:28.469Z,5.97
2022-08-04T22:30:58.909Z,7.20
2022-08-04T22:33:54.408Z,4.68
2022-08-04T22:36:19.616Z,3.65
2022-08-04T22:39:01.650Z,6.82
2022-08-04T22:41:48.837Z,6.18
2022-08-04T22:44:29.722Z,5.28
2022-08-04T22:47:02.237Z,5.47
2022-08-04T22:49:33.591Z,5.78
2022-08-04T22:52:09.567Z,4.90
2022-08-04T22:54:45.574Z,5.15
2022-08-04T22:57:15.254Z,5.70
2022-08-04T22:59:45.101Z,7.82
2022-08-04T23:02:18.574Z,5.00
2022-08-04T23:04:52.379Z,5.65
2022-08-04T23:07:33.966Z,4.80
2022-08-04T23:10:16.438Z,5.68
2022-08-04T23:12:53.911Z,7.30
2022-08-04T23:15:23.617Z,9.32
2022-08-04T23:17:53.279Z,8.23
2022-08-04T23:20:32.887Z,10.05
2022-08-04T23:23:12.260Z,8.35
2022-08-04T23:26:07.595Z,6.87
2022-08-04T23:28:37.798Z,6.88
2022-08-04T23:31:10.046Z,7.40
2022-08-04T23:33:50.900Z,6.75
2022-08-04T23:36:26.281Z,10.63
2022-08-04T23:39:04.114Z,7.25
2022-08-04T23:41:53.815Z,6.05
2022-08-04T23:44:26.702Z,7.95
2022-08-04T23:47:01.349Z,5.65
2022-08-04T23:49:44.139Z,8.75
2022-08-04T23:52:27.605Z,5.90
2022-08-04T23:54:59.752Z,8.05
2022-08-04T23:58:06.170Z,9.57
